sensor_id;sensor_type;location;lat;lon;timestamp;pressure;altitude;pressure_sealevel;temperature;humidity
35848;BME280;22332;51.954;20.118;2023-09-19T00:02:34;99475.05;;;18.48;79.16
35848;BME280;22332;51.954;20.118;2023-09-19T00:05:40;99468.83;;;18.50;79.18
35848;BME280;22332;51.954;20.118;2023-09-19T00:08:48;99469.13;;;18.50;79.21
35848;BME280;22332;51.954;20.118;2023-09-19T00:11:54;99466.95;;;18.50;79.38
35848;BME280;22332;51.954;20.118;2023-09-19T00:14:59;99460.01;;;18.51;79.33
35848;BME280;22332;51.954;20.118;2023-09-19T00:18:05;99460.00;;;18.51;79.43
35848;BME280;22332;51.954;20.118;2023-09-19T00:21:11;99455.91;;;18.49;79.50
35848;BME280;22332;51.954;20.118;2023-09-19T00:24:17;99451.85;;;18.47;79.55
35848;BME280;22332;51.954;20.118;2023-09-19T00:27:22;99444.77;;;18.45;79.66
35848;BME280;22332;51.954;20.118;2023-09-19T00:30:28;99440.42;;;18.42;79.72
35848;BME280;22332;51.954;20.118;2023-09-19T00:33:33;99442.81;;;18.41;79.81
35848;BME280;22332;51.954;20.118;2023-09-19T00:36:39;99445.00;;;18.40;79.83
35848;BME280;22332;51.954;20.118;2023-09-19T00:39:45;99441.11;;;18.38;79.79
35848;BME280;22332;51.954;20.118;2023-09-19T00:42:51;99439.51;;;18.35;79.95
35848;BME280;22332;51.954;20.118;2023-09-19T00:45:57;99437.75;;;18.33;79.88
35848;BME280;22332;51.954;20.118;2023-09-19T00:49:05;99432.36;;;18.28;80.01
35848;BME280;22332;51.954;20.118;2023-09-19T00:52:14;99437.56;;;18.24;80.15
35848;BME280;22332;51.954;20.118;2023-09-19T00:55:19;99436.15;;;18.22;80.29
35848;BME280;22332;51.954;20.118;2023-09-19T00:58:25;99433.70;;;18.23;80.36
35848;BME280;22332;51.954;20.118;2023-09-19T01:01:36;99429.38;;;18.26;80.39
35848;BME280;22332;51.954;20.118;2023-09-19T01:04:44;99425.23;;;18.27;80.48
35848;BME280;22332;51.954;20.118;2023-09-19T01:07:50;99422.42;;;18.28;80.48
35848;BME280;22332;51.954;20.118;2023-09-19T01:11:01;99416.53;;;18.28;80.49
35848;BME280;22332;51.954;20.118;2023-09-19T01:14:20;99409.30;;;18.28;80.43
35848;BME280;22332;51.954;20.118;2023-09-19T01:17:29;99407.61;;;18.31;80.47
35848;BME280;22332;51.954;20.118;2023-09-19T01:20:39;99405.57;;;18.35;80.65
35848;BME280;22332;51.954;20.118;2023-09-19T01:24:07;99403.30;;;18.37;80.70
35848;BME280;22332;51.954;20.118;2023-09-19T01:30:48;99394.59;;;18.36;80.69
35848;BME280;22332;51.954;20.118;2023-09-19T01:34:00;99390.32;;;18.38;80.82
35848;BME280;22332;51.954;20.118;2023-09-19T01:37:08;99388.65;;;18.40;80.73
35848;BME280;22332;51.954;20.118;2023-09-19T01:40:16;99384.39;;;18.42;80.76
35848;BME280;22332;51.954;20.118;2023-09-19T01:43:28;99381.02;;;18.42;80.79
35848;BME280;22332;51.954;20.118;2023-09-19T01:46:40;99381.65;;;18.42;80.78
35848;BME280;22332;51.954;20.118;2023-09-19T01:49:59;99379.09;;;18.40;80.83
35848;BME280;22332;51.954;20.118;2023-09-19T01:53:15;99378.45;;;18.38;80.87
35848;BME280;22332;51.954;20.118;2023-09-19T01:56:30;99371.59;;;18.37;80.98
35848;BME280;22332;51.954;20.118;2023-09-19T01:59:43;99369.56;;;18.37;80.89
35848;BME280;22332;51.954;20.118;2023-09-19T02:02:51;99366.41;;;18.37;80.93
35848;BME280;22332;51.954;20.118;2023-09-19T02:06:00;99369.02;;;18.37;80.78
35848;BME280;22332;51.954;20.118;2023-09-19T02:09:07;99370.67;;;18.35;80.89
35848;BME280;22332;51.954;20.118;2023-09-19T02:12:14;99374.54;;;18.30;81.01
35848;BME280;22332;51.954;20.118;2023-09-19T02:15:20;99370.80;;;18.26;80.97
35848;BME280;22332;51.954;20.118;2023-09-19T02:18:26;99364.45;;;18.23;81.07
35848;BME280;22332;51.954;20.118;2023-09-19T02:21:32;99366.19;;;18.22;81.09
35848;BME280;22332;51.954;20.118;2023-09-19T02:24:39;99362.30;;;18.22;81.00
35848;BME280;22332;51.954;20.118;2023-09-19T02:27:44;99359.57;;;18.21;81.07
35848;BME280;22332;51.954;20.118;2023-09-19T02:30:52;99353.66;;;18.18;81.10
35848;BME280;22332;51.954;20.118;2023-09-19T02:33:57;99350.38;;;18.15;81.11
35848;BME280;22332;51.954;20.118;2023-09-19T02:37:04;99343.48;;;18.11;81.18
35848;BME280;22332;51.954;20.118;2023-09-19T02:40:11;99346.00;;;18.09;81.14
35848;BME280;22332;51.954;20.118;2023-09-19T02:43:24;99348.02;;;18.09;81.16
35848;BME280;22332;51.954;20.118;2023-09-19T02:46:30;99346.84;;;18.07;81.18
35848;BME280;22332;51.954;20.118;2023-09-19T02:49:35;99344.47;;;18.03;81.18
35848;BME280;22332;51.954;20.118;2023-09-19T02:52:44;99341.23;;;17.99;81.21
35848;BME280;22332;51.954;20.118;2023-09-19T02:55:51;99334.48;;;17.94;81.16
35848;BME280;22332;51.954;20.118;2023-09-19T02:58:58;99335.71;;;17.88;81.27
35848;BME280;22332;51.954;20.118;2023-09-19T03:02:05;99341.63;;;17.86;81.24
35848;BME280;22332;51.954;20.118;2023-09-19T03:05:11;99339.22;;;17.83;81.46
35848;BME280;22332;51.954;20.118;2023-09-19T03:08:17;99333.77;;;17.82;81.46
35848;BME280;22332;51.954;20.118;2023-09-19T03:11:25;99327.23;;;17.82;81.45
35848;BME280;22332;51.954;20.118;2023-09-19T03:14:34;99332.33;;;17.79;81.44
35848;BME280;22332;51.954;20.118;2023-09-19T03:17:44;99327.64;;;17.74;81.55
35848;BME280;22332;51.954;20.118;2023-09-19T03:20:55;99325.66;;;17.68;81.57
35848;BME280;22332;51.954;20.118;2023-09-19T03:24:01;99321.60;;;17.63;81.63
35848;BME280;22332;51.954;20.118;2023-09-19T03:27:10;99323.06;;;17.58;81.59
35848;BME280;22332;51.954;20.118;2023-09-19T03:30:18;99324.11;;;17.57;81.73
35848;BME280;22332;51.954;20.118;2023-09-19T03:33:24;99322.67;;;17.56;81.76
35848;BME280;22332;51.954;20.118;2023-09-19T03:36:31;99317.70;;;17.53;81.90
35848;BME280;22332;51.954;20.118;2023-09-19T03:39:39;99316.86;;;17.50;81.93
35848;BME280;22332;51.954;20.118;2023-09-19T03:42:46;99316.27;;;17.47;82.01
35848;BME280;22332;51.954;20.118;2023-09-19T03:45:53;99314.46;;;17.46;82.10
35848;BME280;22332;51.954;20.118;2023-09-19T03:49:00;99318.35;;;17.46;82.28
35848;BME280;22332;51.954;20.118;2023-09-19T03:52:06;99317.60;;;17.48;82.19
35848;BME280;22332;51.954;20.118;2023-09-19T03:55:12;99311.69;;;17.49;82.20
35848;BME280;22332;51.954;20.118;2023-09-19T03:58:18;99313.27;;;17.48;82.25
35848;BME280;22332;51.954;20.118;2023-09-19T04:01:25;99314.73;;;17.46;82.27
35848;BME280;22332;51.954;20.118;2023-09-19T04:04:32;99311.48;;;17.45;82.41
35848;BME280;22332;51.954;20.118;2023-09-19T04:07:38;99307.05;;;17.47;82.51
35848;BME280;22332;51.954;20.118;2023-09-19T04:10:44;99305.93;;;17.51;82.54
35848;BME280;22332;51.954;20.118;2023-09-19T04:13:50;99303.20;;;17.56;82.62
35848;BME280;22332;51.954;20.118;2023-09-19T04:16:55;99300.49;;;17.61;82.63
35848;BME280;22332;51.954;20.118;2023-09-19T04:20:01;99300.80;;;17.64;82.62
35848;BME280;22332;51.954;20.118;2023-09-19T04:23:09;99296.34;;;17.65;82.63
35848;BME280;22332;51.954;20.118;2023-09-19T04:26:15;99301.23;;;17.66;82.72
35848;BME280;22332;51.954;20.118;2023-09-19T04:29:22;99304.41;;;17.68;82.70
35848;BME280;22332;51.954;20.118;2023-09-19T04:32:29;99314.45;;;17.68;82.83
35848;BME280;22332;51.954;20.118;2023-09-19T04:35:36;99315.35;;;17.70;82.93
35848;BME280;22332;51.954;20.118;2023-09-19T04:38:43;99320.23;;;17.72;82.94
35848;BME280;22332;51.954;20.118;2023-09-19T04:41:49;99326.36;;;17.73;83.02
35848;BME280;22332;51.954;20.118;2023-09-19T04:44:54;99330.11;;;17.79;83.17
35848;BME280;22332;51.954;20.118;2023-09-19T04:48:00;99325.54;;;17.87;83.17
35848;BME280;22332;51.954;20.118;2023-09-19T04:51:07;99319.08;;;17.95;83.10
35848;BME280;22332;51.954;20.118;2023-09-19T04:54:12;99316.11;;;17.99;83.14
35848;BME280;22332;51.954;20.118;2023-09-19T04:57:19;99318.82;;;18.02;83.17
35848;BME280;22332;51.954;20.118;2023-09-19T05:00:24;99317.52;;;18.04;83.40
35848;BME280;22332;51.954;20.118;2023-09-19T05:03:35;99319.65;;;18.10;83.44
35848;BME280;22332;51.954;20.118;2023-09-19T05:06:40;99325.66;;;18.15;83.35
35848;BME280;22332;51.954;20.118;2023-09-19T05:09:46;99325.56;;;18.19;83.59
35848;BME280;22332;51.954;20.118;2023-09-19T05:12:54;99329.52;;;18.23;83.33
35848;BME280;22332;51.954;20.118;2023-09-19T05:16:02;99327.16;;;18.26;83.34
35848;BME280;22332;51.954;20.118;2023-09-19T05:19:08;99331.20;;;18.28;83.57
35848;BME280;22332;51.954;20.118;2023-09-19T05:22:16;99327.37;;;18.32;83.56
35848;BME280;22332;51.954;20.118;2023-09-19T05:25:23;99325.45;;;18.36;83.55
35848;BME280;22332;51.954;20.118;2023-09-19T05:28:29;99319.36;;;18.41;83.51
35848;BME280;22332;51.954;20.118;2023-09-19T05:31:36;99312.61;;;18.45;83.40
35848;BME280;22332;51.954;20.118;2023-09-19T05:34:45;99302.10;;;18.49;83.49
35848;BME280;22332;51.954;20.118;2023-09-19T05:37:53;99298.27;;;18.53;83.41
35848;BME280;22332;51.954;20.118;2023-09-19T05:41:00;99305.73;;;18.63;83.36
35848;BME280;22332;51.954;20.118;2023-09-19T05:44:07;99310.59;;;18.73;83.24
35848;BME280;22332;51.954;20.118;2023-09-19T05:47:13;99316.54;;;18.83;83.30
35848;BME280;22332;51.954;20.118;2023-09-19T05:50:19;99310.67;;;18.89;83.16
35848;BME280;22332;51.954;20.118;2023-09-19T05:53:25;99317.05;;;19.02;83.14
35848;BME280;22332;51.954;20.118;2023-09-19T05:56:31;99322.73;;;19.14;83.11
35848;BME280;22332;51.954;20.118;2023-09-19T05:59:38;99326.40;;;19.24;82.83
35848;BME280;22332;51.954;20.118;2023-09-19T06:02:52;99330.39;;;19.37;82.76
35848;BME280;22332;51.954;20.118;2023-09-19T06:05:57;99332.96;;;19.50;82.60
35848;BME280;22332;51.954;20.118;2023-09-19T06:09:04;99334.59;;;19.64;82.36
35848;BME280;22332;51.954;20.118;2023-09-19T06:12:11;99332.84;;;19.78;82.48
35848;BME280;22332;51.954;20.118;2023-09-19T06:15:20;99334.63;;;19.92;82.33
35848;BME280;22332;51.954;20.118;2023-09-19T06:18:29;99336.91;;;20.06;82.15
35848;BME280;22332;51.954;20.118;2023-09-19T06:21:38;99345.81;;;20.24;81.87
35848;BME280;22332;51.954;20.118;2023-09-19T06:24:44;99352.20;;;20.43;81.68
35848;BME280;22332;51.954;20.118;2023-09-19T06:27:52;99348.28;;;20.65;81.57
35848;BME280;22332;51.954;20.118;2023-09-19T06:30:58;99346.67;;;20.82;80.14
35848;BME280;22332;51.954;20.118;2023-09-19T06:34:04;99349.05;;;20.91;80.44
35848;BME280;22332;51.954;20.118;2023-09-19T06:37:11;99357.65;;;21.02;80.32
35848;BME280;22332;51.954;20.118;2023-09-19T06:40:17;99365.55;;;21.10;79.25
35848;BME280;22332;51.954;20.118;2023-09-19T06:43:23;99364.98;;;21.06;79.52
35848;BME280;22332;51.954;20.118;2023-09-19T06:46:29;99365.02;;;21.01;78.60
35848;BME280;22332;51.954;20.118;2023-09-19T06:49:37;99368.39;;;20.90;79.23
35848;BME280;22332;51.954;20.118;2023-09-19T06:52:43;99366.63;;;20.89;79.29
35848;BME280;22332;51.954;20.118;2023-09-19T06:55:48;99366.76;;;20.98;78.89
35848;BME280;22332;51.954;20.118;2023-09-19T06:58:54;99373.40;;;21.21;79.27
35848;BME280;22332;51.954;20.118;2023-09-19T07:02:01;99377.46;;;21.45;77.90
35848;BME280;22332;51.954;20.118;2023-09-19T07:05:10;99382.34;;;21.57;77.49
35848;BME280;22332;51.954;20.118;2023-09-19T07:08:17;99378.08;;;21.73;77.65
35848;BME280;22332;51.954;20.118;2023-09-19T07:11:25;99379.41;;;21.82;77.96
35848;BME280;22332;51.954;20.118;2023-09-19T07:14:31;99386.21;;;21.94;77.62
35848;BME280;22332;51.954;20.118;2023-09-19T07:17:37;99403.92;;;21.91;76.62
35848;BME280;22332;51.954;20.118;2023-09-19T07:20:43;99422.14;;;21.64;77.83
35848;BME280;22332;51.954;20.118;2023-09-19T07:23:53;99437.27;;;21.47;77.74
35848;BME280;22332;51.954;20.118;2023-09-19T07:27:02;99440.11;;;21.17;78.37
35848;BME280;22332;51.954;20.118;2023-09-19T07:30:11;99441.66;;;20.98;79.09
35848;BME280;22332;51.954;20.118;2023-09-19T07:33:17;99428.95;;;20.68;80.04
35848;BME280;22332;51.954;20.118;2023-09-19T07:36:22;99428.39;;;20.42;80.57
35848;BME280;22332;51.954;20.118;2023-09-19T07:39:28;99431.48;;;20.17;82.27
35848;BME280;22332;51.954;20.118;2023-09-19T07:42:34;99437.05;;;19.93;82.71
35848;BME280;22332;51.954;20.118;2023-09-19T07:45:41;99438.02;;;19.72;83.80
35848;BME280;22332;51.954;20.118;2023-09-19T07:48:47;99442.14;;;19.59;83.66
35848;BME280;22332;51.954;20.118;2023-09-19T07:51:53;99440.77;;;19.50;83.81
35848;BME280;22332;51.954;20.118;2023-09-19T07:54:59;99442.42;;;19.40;85.01
35848;BME280;22332;51.954;20.118;2023-09-19T07:58:06;99445.38;;;19.32;85.55
35848;BME280;22332;51.954;20.118;2023-09-19T08:01:12;99454.63;;;19.21;85.37
35848;BME280;22332;51.954;20.118;2023-09-19T08:04:17;99450.05;;;19.16;86.27
35848;BME280;22332;51.954;20.118;2023-09-19T08:07:24;99449.30;;;19.10;86.53
35848;BME280;22332;51.954;20.118;2023-09-19T08:10:29;99449.58;;;19.01;88.03
35848;BME280;22332;51.954;20.118;2023-09-19T08:13:39;99451.10;;;18.93;87.43
35848;BME280;22332;51.954;20.118;2023-09-19T08:16:48;99451.61;;;18.96;87.27
35848;BME280;22332;51.954;20.118;2023-09-19T08:19:53;99448.46;;;18.97;88.52
35848;BME280;22332;51.954;20.118;2023-09-19T08:22:59;99445.81;;;18.90;88.01
35848;BME280;22332;51.954;20.118;2023-09-19T08:26:05;99449.97;;;18.97;87.57
35848;BME280;22332;51.954;20.118;2023-09-19T08:29:12;99446.80;;;19.04;88.22
35848;BME280;22332;51.954;20.118;2023-09-19T08:32:17;99446.76;;;19.04;88.04
35848;BME280;22332;51.954;20.118;2023-09-19T08:35:28;99449.86;;;19.05;89.66
35848;BME280;22332;51.954;20.118;2023-09-19T08:38:35;99452.53;;;19.04;90.18
35848;BME280;22332;51.954;20.118;2023-09-19T08:41:41;99457.27;;;19.05;89.34
35848;BME280;22332;51.954;20.118;2023-09-19T08:44:47;99454.59;;;19.06;90.24
35848;BME280;22332;51.954;20.118;2023-09-19T08:48:00;99457.66;;;19.06;90.74
35848;BME280;22332;51.954;20.118;2023-09-19T08:51:16;99452.91;;;19.08;91.15
35848;BME280;22332;51.954;20.118;2023-09-19T08:54:25;99461.65;;;19.13;90.43
35848;BME280;22332;51.954;20.118;2023-09-19T08:57:36;99461.39;;;19.21;90.23
35848;BME280;22332;51.954;20.118;2023-09-19T09:00:45;99458.02;;;19.33;90.34
35848;BME280;22332;51.954;20.118;2023-09-19T09:03:55;99454.93;;;19.36;90.59
35848;BME280;22332;51.954;20.118;2023-09-19T09:07:01;99455.91;;;19.37;90.75
35848;BME280;22332;51.954;20.118;2023-09-19T09:10:09;99454.34;;;19.45;90.22
35848;BME280;22332;51.954;20.118;2023-09-19T09:13:15;99455.41;;;19.51;90.45
35848;BME280;22332;51.954;20.118;2023-09-19T09:16:22;99462.31;;;19.57;90.13
35848;BME280;22332;51.954;20.118;2023-09-19T09:19:31;99466.16;;;19.70;90.00
35848;BME280;22332;51.954;20.118;2023-09-19T09:22:37;99473.68;;;19.86;89.96
35848;BME280;22332;51.954;20.118;2023-09-19T09:25:51;99474.95;;;20.02;89.90
35848;BME280;22332;51.954;20.118;2023-09-19T09:29:00;99473.73;;;20.18;89.82
35848;BME280;22332;51.954;20.118;2023-09-19T09:32:22;99474.17;;;20.32;89.57
35848;BME280;22332;51.954;20.118;2023-09-19T09:35:28;99471.58;;;20.40;89.48
35848;BME280;22332;51.954;20.118;2023-09-19T09:38:46;99462.88;;;20.53;89.54
35848;BME280;22332;51.954;20.118;2023-09-19T09:41:52;99459.92;;;20.73;89.34
35848;BME280;22332;51.954;20.118;2023-09-19T09:45:13;99459.58;;;20.94;89.14
35848;BME280;22332;51.954;20.118;2023-09-19T09:48:25;99463.23;;;21.05;88.64
35848;BME280;22332;51.954;20.118;2023-09-19T09:51:36;99466.95;;;21.16;88.75
35848;BME280;22332;51.954;20.118;2023-09-19T09:55:00;99481.40;;;21.34;88.87
35848;BME280;22332;51.954;20.118;2023-09-19T09:58:19;99487.97;;;21.43;88.42
35848;BME280;22332;51.954;20.118;2023-09-19T10:01:28;99488.59;;;21.48;88.50
35848;BME280;22332;51.954;20.118;2023-09-19T10:04:51;99493.11;;;21.55;88.35
35848;BME280;22332;51.954;20.118;2023-09-19T10:08:12;99498.09;;;21.60;88.42
35848;BME280;22332;51.954;20.118;2023-09-19T10:11:23;99494.98;;;21.66;88.12
35848;BME280;22332;51.954;20.118;2023-09-19T10:14:37;99500.58;;;21.64;87.89
35848;BME280;22332;51.954;20.118;2023-09-19T10:17:45;99504.97;;;21.62;88.17
35848;BME280;22332;51.954;20.118;2023-09-19T10:20:51;99507.71;;;21.61;88.07
35848;BME280;22332;51.954;20.118;2023-09-19T10:23:59;99507.95;;;21.59;88.07
35848;BME280;22332;51.954;20.118;2023-09-19T10:27:07;99505.61;;;21.59;88.05
35848;BME280;22332;51.954;20.118;2023-09-19T10:30:14;99507.45;;;21.62;87.91
35848;BME280;22332;51.954;20.118;2023-09-19T10:33:22;99501.10;;;21.65;87.94
35848;BME280;22332;51.954;20.118;2023-09-19T10:36:34;99503.02;;;21.69;87.78
35848;BME280;22332;51.954;20.118;2023-09-19T10:39:40;99508.71;;;21.72;87.72
35848;BME280;22332;51.954;20.118;2023-09-19T10:42:50;99507.48;;;21.79;87.53
35848;BME280;22332;51.954;20.118;2023-09-19T10:46:00;99505.62;;;21.84;87.39
35848;BME280;22332;51.954;20.118;2023-09-19T10:49:08;99505.47;;;21.94;87.23
35848;BME280;22332;51.954;20.118;2023-09-19T10:52:19;99507.81;;;21.99;87.41
35848;BME280;22332;51.954;20.118;2023-09-19T10:55:28;99517.17;;;21.97;87.40
35848;BME280;22332;51.954;20.118;2023-09-19T10:58:35;99520.41;;;21.91;87.51
35848;BME280;22332;51.954;20.118;2023-09-19T11:01:50;99520.98;;;21.90;87.65
35848;BME280;22332;51.954;20.118;2023-09-19T11:05:14;99523.81;;;21.96;87.60
35848;BME280;22332;51.954;20.118;2023-09-19T11:08:20;99536.08;;;21.93;87.18
35848;BME280;22332;51.954;20.118;2023-09-19T11:11:47;99541.57;;;21.84;87.37
35848;BME280;22332;51.954;20.118;2023-09-19T11:14:57;99535.05;;;21.81;87.68
35848;BME280;22332;51.954;20.118;2023-09-19T11:21:55;99542.23;;;21.76;87.84
35848;BME280;22332;51.954;20.118;2023-09-19T11:25:42;99546.46;;;21.78;87.60
35848;BME280;22332;51.954;20.118;2023-09-19T11:29:27;99545.33;;;21.78;87.71
35848;BME280;22332;51.954;20.118;2023-09-19T11:36:15;99550.87;;;21.81;87.67
35848;BME280;22332;51.954;20.118;2023-09-19T11:39:27;99552.86;;;21.80;87.60
35848;BME280;22332;51.954;20.118;2023-09-19T11:42:47;99555.72;;;21.81;87.76
35848;BME280;22332;51.954;20.118;2023-09-19T11:46:09;99552.76;;;21.84;87.39
35848;BME280;22332;51.954;20.118;2023-09-19T11:49:17;99552.98;;;21.85;87.60
35848;BME280;22332;51.954;20.118;2023-09-19T11:52:26;99553.05;;;21.78;87.64
35848;BME280;22332;51.954;20.118;2023-09-19T11:55:34;99553.23;;;21.78;87.86
35848;BME280;22332;51.954;20.118;2023-09-19T11:58:42;99558.36;;;21.78;87.43
35848;BME280;22332;51.954;20.118;2023-09-19T12:01:52;99559.25;;;21.80;87.46
35848;BME280;22332;51.954;20.118;2023-09-19T12:05:01;99561.27;;;21.70;87.56
35848;BME280;22332;51.954;20.118;2023-09-19T12:08:08;99563.00;;;21.62;87.75
35848;BME280;22332;51.954;20.118;2023-09-19T12:11:15;99563.52;;;21.63;88.02
35848;BME280;22332;51.954;20.118;2023-09-19T12:14:25;99564.33;;;21.66;87.85
35848;BME280;22332;51.954;20.118;2023-09-19T12:17:38;99565.62;;;21.66;87.01
35848;BME280;22332;51.954;20.118;2023-09-19T12:20:46;99559.60;;;21.74;87.14
35848;BME280;22332;51.954;20.118;2023-09-19T12:23:59;99562.42;;;21.87;86.61
35848;BME280;22332;51.954;20.118;2023-09-19T12:27:10;99567.73;;;21.92;86.40
35848;BME280;22332;51.954;20.118;2023-09-19T12:30:17;99569.81;;;21.84;85.30
35848;BME280;22332;51.954;20.118;2023-09-19T12:33:23;99576.33;;;21.69;85.78
35848;BME280;22332;51.954;20.118;2023-09-19T12:36:30;99577.00;;;21.61;86.01
35848;BME280;22332;51.954;20.118;2023-09-19T12:39:42;99577.15;;;21.49;85.72
35848;BME280;22332;51.954;20.118;2023-09-19T12:42:49;99577.85;;;21.46;86.66
35848;BME280;22332;51.954;20.118;2023-09-19T12:45:55;99583.48;;;21.45;86.45
35848;BME280;22332;51.954;20.118;2023-09-19T12:49:20;99587.27;;;21.50;85.57
35848;BME280;22332;51.954;20.118;2023-09-19T12:52:31;99592.77;;;21.51;85.24
35848;BME280;22332;51.954;20.118;2023-09-19T12:55:39;99598.84;;;21.43;82.54
35848;BME280;22332;51.954;20.118;2023-09-19T12:58:55;99600.81;;;21.44;84.08
35848;BME280;22332;51.954;20.118;2023-09-19T13:02:06;99602.58;;;21.46;83.37
35848;BME280;22332;51.954;20.118;2023-09-19T13:05:18;99604.46;;;21.38;83.30
35848;BME280;22332;51.954;20.118;2023-09-19T13:08:26;99609.30;;;21.45;83.99
35848;BME280;22332;51.954;20.118;2023-09-19T13:11:38;99605.80;;;21.56;82.76
35848;BME280;22332;51.954;20.118;2023-09-19T13:14:46;99611.48;;;21.36;80.42
35848;BME280;22332;51.954;20.118;2023-09-19T13:17:55;99610.41;;;21.01;81.37
35848;BME280;22332;51.954;20.118;2023-09-19T13:21:10;99613.45;;;20.76;81.88
35848;BME280;22332;51.954;20.118;2023-09-19T13:24:23;99617.14;;;20.65;82.44
35848;BME280;22332;51.954;20.118;2023-09-19T13:27:32;99613.02;;;20.70;82.75
35848;BME280;22332;51.954;20.118;2023-09-19T13:30:38;99614.36;;;20.69;82.67
35848;BME280;22332;51.954;20.118;2023-09-19T13:33:47;99615.36;;;20.70;82.93
35848;BME280;22332;51.954;20.118;2023-09-19T13:36:54;99613.58;;;20.75;83.15
35848;BME280;22332;51.954;20.118;2023-09-19T13:40:00;99615.10;;;20.80;82.94
35848;BME280;22332;51.954;20.118;2023-09-19T13:43:06;99615.83;;;20.84;82.54
35848;BME280;22332;51.954;20.118;2023-09-19T13:46:12;99618.33;;;20.93;82.42
35848;BME280;22332;51.954;20.118;2023-09-19T13:49:20;99611.60;;;20.95;82.47
35848;BME280;22332;51.954;20.118;2023-09-19T13:52:28;99611.20;;;21.02;82.31
35848;BME280;22332;51.954;20.118;2023-09-19T13:55:35;99609.29;;;21.12;82.36
35848;BME280;22332;51.954;20.118;2023-09-19T13:58:42;99601.67;;;21.29;81.89
35848;BME280;22332;51.954;20.118;2023-09-19T14:01:47;99598.66;;;21.41;81.35
35848;BME280;22332;51.954;20.118;2023-09-19T14:04:53;99599.11;;;21.50;81.13
35848;BME280;22332;51.954;20.118;2023-09-19T14:07:59;99597.23;;;21.66;81.50
35848;BME280;22332;51.954;20.118;2023-09-19T14:11:08;99599.45;;;21.74;79.60
35848;BME280;22332;51.954;20.118;2023-09-19T14:14:14;99598.92;;;21.84;80.29
35848;BME280;22332;51.954;20.118;2023-09-19T14:17:19;99601.33;;;21.87;77.33
35848;BME280;22332;51.954;20.118;2023-09-19T14:20:25;99600.02;;;21.78;77.33
35848;BME280;22332;51.954;20.118;2023-09-19T14:23:36;99603.15;;;21.77;77.22
35848;BME280;22332;51.954;20.118;2023-09-19T14:26:41;99601.56;;;21.82;77.60
35848;BME280;22332;51.954;20.118;2023-09-19T14:29:47;99606.52;;;21.89;76.07
35848;BME280;22332;51.954;20.118;2023-09-19T14:32:52;99605.76;;;21.89;75.08
35848;BME280;22332;51.954;20.118;2023-09-19T14:36:00;99603.55;;;21.92;76.03
35848;BME280;22332;51.954;20.118;2023-09-19T14:39:07;99606.84;;;22.04;76.69
35848;BME280;22332;51.954;20.118;2023-09-19T14:42:13;99604.46;;;22.11;76.00
35848;BME280;22332;51.954;20.118;2023-09-19T14:45:21;99607.63;;;22.11;75.30
35848;BME280;22332;51.954;20.118;2023-09-19T14:48:29;99610.48;;;22.04;74.01
35848;BME280;22332;51.954;20.118;2023-09-19T14:51:35;99613.50;;;22.05;75.90
35848;BME280;22332;51.954;20.118;2023-09-19T14:54:41;99616.23;;;22.12;75.25
35848;BME280;22332;51.954;20.118;2023-09-19T14:57:51;99616.61;;;22.10;75.07
35848;BME280;22332;51.954;20.118;2023-09-19T15:01:03;99619.67;;;22.07;75.02
35848;BME280;22332;51.954;20.118;2023-09-19T15:04:09;99617.40;;;22.08;74.86
35848;BME280;22332;51.954;20.118;2023-09-19T15:07:15;99614.98;;;22.08;74.32
35848;BME280;22332;51.954;20.118;2023-09-19T15:10:22;99616.88;;;22.03;73.38
35848;BME280;22332;51.954;20.118;2023-09-19T15:13:27;99618.50;;;21.96;74.24
35848;BME280;22332;51.954;20.118;2023-09-19T15:16:33;99620.19;;;21.85;72.66
35848;BME280;22332;51.954;20.118;2023-09-19T15:19:40;99620.58;;;21.72;74.33
35848;BME280;22332;51.954;20.118;2023-09-19T15:22:45;99627.32;;;21.63;73.32
35848;BME280;22332;51.954;20.118;2023-09-19T15:25:52;99629.11;;;21.47;73.85
35848;BME280;22332;51.954;20.118;2023-09-19T15:28:58;99642.55;;;21.37;73.78
35848;BME280;22332;51.954;20.118;2023-09-19T15:32:04;99644.36;;;21.26;73.43
35848;BME280;22332;51.954;20.118;2023-09-19T15:35:10;99644.86;;;21.13;73.70
35848;BME280;22332;51.954;20.118;2023-09-19T15:38:18;99649.33;;;20.99;73.06
35848;BME280;22332;51.954;20.118;2023-09-19T15:41:24;99647.00;;;20.88;73.50
35848;BME280;22332;51.954;20.118;2023-09-19T15:44:31;99650.04;;;20.78;73.50
35848;BME280;22332;51.954;20.118;2023-09-19T15:47:37;99651.75;;;20.71;73.67
35848;BME280;22332;51.954;20.118;2023-09-19T15:50:42;99660.66;;;20.62;73.70
35848;BME280;22332;51.954;20.118;2023-09-19T15:53:50;99664.87;;;20.54;73.44
35848;BME280;22332;51.954;20.118;2023-09-19T15:56:57;99669.12;;;20.44;72.99
35848;BME280;22332;51.954;20.118;2023-09-19T16:00:05;99669.42;;;20.35;72.78
35848;BME280;22332;51.954;20.118;2023-09-19T16:03:16;99672.33;;;20.28;72.95
35848;BME280;22332;51.954;20.118;2023-09-19T16:06:23;99678.26;;;20.18;72.76
35848;BME280;22332;51.954;20.118;2023-09-19T16:09:29;99686.34;;;20.06;72.31
35848;BME280;22332;51.954;20.118;2023-09-19T16:12:35;99683.28;;;19.97;72.74
35848;BME280;22332;51.954;20.118;2023-09-19T16:15:43;99685.94;;;19.90;72.71
35848;BME280;22332;51.954;20.118;2023-09-19T16:18:50;99693.54;;;19.84;72.63
35848;BME280;22332;51.954;20.118;2023-09-19T16:21:57;99692.37;;;19.75;72.65
35848;BME280;22332;51.954;20.118;2023-09-19T16:25:04;99694.73;;;19.67;72.86
35848;BME280;22332;51.954;20.118;2023-09-19T16:28:10;99697.45;;;19.57;72.85
35848;BME280;22332;51.954;20.118;2023-09-19T16:31:16;99699.73;;;19.47;72.85
35848;BME280;22332;51.954;20.118;2023-09-19T16:34:21;99702.21;;;19.38;72.97
35848;BME280;22332;51.954;20.118;2023-09-19T16:37:27;99705.37;;;19.30;73.11